Data for 03/01/2016

Time Sea-Level Adjusted Pressure Absolute Pressure Temperature Relative Humidity Dew Point   
(mb) (inHg) (mb) (inHg) (C) (F) (%) (C) (F)
00:05 1022 30.18 851 25.13 -2.1 28.2 47 -11.9 10.6
00:10 1022 30.18 851 25.13 -2.2 28 48 -11.8 10.7
00:15 1022 30.18 851 25.13 -2.5 27.5 51 -11.3 11.7
00:20 1022 30.18 851 25.13 -2.7 27.1 53 -11.1 12.1
00:25 1022 30.18 851 25.13 -2.8 27 53 -11.2 11.9
00:30 1022 30.18 851 25.13 -2.9 26.9 53 -11.2 11.8
00:35 1022 30.18 851 25.13 -3.1 26.4 53 -11.4 11.5
00:40 1021 30.15 851 25.13 -3.1 26.5 52 -11.5 11.3
00:45 1021 30.15 851 25.13 -3.1 26.4 53 -11.5 11.4
00:50 1021 30.15 851 25.13 -3.4 25.9 55 -11.2 11.8
00:55 1021 30.15 851 25.13 -3.5 25.7 54 -11.5 11.3
01:00 1021 30.15 851 25.13 -3.5 25.7 55 -11.3 11.6
01:05 1021 30.15 850 25.1 -3.6 25.5 54 -11.6 11.1
01:10 1021 30.15 850 25.1 -3.7 25.3 55 -11.4 11.4
01:15 1021 30.15 850 25.1 -4 24.9 56 -11.6 11.2
01:20 1021 30.15 850 25.1 -4 24.8 56 -11.5 11.3
01:25 1021 30.15 850 25.1 -4.1 24.7 56 -11.6 11.2
01:30 1021 30.15 850 25.1 -4.1 24.6 56 -11.6 11.2
01:35 1021 30.15 850 25.1 -4.1 24.7 55 -11.7 10.9
01:40 1021 30.15 851 25.13 -4 24.8 55 -11.8 10.7
01:45 1021 30.15 851 25.13 -4 24.7 55 -11.7 10.9
01:50 1021 30.15 851 25.13 -4 24.7 56 -11.6 11.1
01:55 1021 30.15 851 25.13 -4 24.9 56 -11.4 11.4
02:00 1022 30.18 851 25.13 -3.9 25 55 -11.7 11
02:05 1022 30.18 851 25.13 -3.7 25.4 53 -11.9 10.6
02:10 1022 30.18 851 25.13 -3.6 25.5 53 -11.8 10.8
02:15 1021 30.15 851 25.13 -3.7 25.3 54 -11.7 11
02:20 1021 30.15 851 25.13 -3.7 25.4 52 -12.1 10.2
02:25 1021 30.15 851 25.13 -3.7 25.4 53 -12 10.5
02:30 1021 30.15 851 25.13 -3.8 25.1 53 -12.1 10.2
02:35 1021 30.15 851 25.13 -3.8 25.1 54 -11.9 10.5
02:40 1021 30.15 851 25.13 -4 24.7 54 -12 10.4
02:45 1021 30.15 851 25.13 -4.2 24.5 56 -11.8 10.8
02:50 1021 30.15 851 25.13 -4.4 24.1 56 -11.8 10.7
02:55 1021 30.15 851 25.13 -4.4 24 57 -11.8 10.8
03:00 1022 30.18 851 25.13 -4.5 23.9 56 -12 10.4
03:05 1022 30.18 851 25.13 -4.4 24.1 56 -12 10.4
03:10 1021 30.15 851 25.13 -4 24.7 55 -11.9 10.7
03:15 1021 30.15 851 25.13 -4 24.8 54 -11.9 10.6
03:20 1021 30.15 851 25.13 -4.3 24.3 57 -11.6 11.2
03:25 1021 30.15 851 25.13 -4.6 23.7 58 -11.8 10.8
03:30 1021 30.15 851 25.13 -4.7 23.6 57 -11.9 10.6
03:35 1021 30.15 850 25.1 -4.7 23.6 57 -11.9 10.6
03:40 1021 30.15 850 25.1 -4.7 23.5 58 -11.8 10.7
03:45 1021 30.15 850 25.1 -4.7 23.6 57 -11.9 10.5
03:50 1021 30.15 850 25.1 -4.6 23.8 56 -12.2 10.1
03:55 1021 30.15 850 25.1 -4.4 24.1 56 -11.9 10.6
04:00 1021 30.15 850 25.1 -4.3 24.2 56 -11.9 10.6
04:05 1021 30.15 850 25.1 -4.4 24.2 57 -11.7 10.9
04:10 1021 30.15 850 25.1 -4.5 23.9 57 -11.8 10.8
04:15 1021 30.15 850 25.1 -4.5 23.9 57 -11.8 10.8
04:20 1021 30.15 850 25.1 -4 24.8 53 -12.1 10.2
04:25 1021 30.15 850 25.1 -3.6 25.5 50 -12.6 9.2
04:30 1021 30.15 850 25.1 -3.4 26 52 -11.8 10.8
04:35 1021 30.15 850 25.1 -3.7 25.3 53 -12 10.5
04:40 1021 30.15 850 25.1 -3.8 25.1 57 -11.2 11.9
04:45 1021 30.15 850 25.1 -4.4 24.1 60 -11 12.2
04:50 1021 30.15 850 25.1 -4.6 23.8 60 -11.3 11.7
04:55 1021 30.15 850 25.1 -4.5 23.9 60 -11.1 12
05:00 1021 30.15 850 25.1 -4.6 23.7 60 -11.3 11.7
05:05 1021 30.15 850 25.1 -4.6 23.8 59 -11.4 11.5
05:10 1021 30.15 850 25.1 -4.8 23.4 59 -11.7 11
05:15 1021 30.15 850 25.1 -4.9 23.1 59 -11.7 11
05:20 1021 30.15 850 25.1 -5.1 22.9 60 -11.8 10.8
05:25 1021 30.15 850 25.1 -5.1 22.9 58 -12 10.4
05:30 1021 30.15 850 25.1 -4.8 23.4 57 -12 10.4
05:35 1021 30.15 850 25.1 -4.4 24.1 54 -12.4 9.7
05:40 1021 30.15 850 25.1 -3.8 25.1 50 -12.8 8.9
05:45 1021 30.15 850 25.1 -3.2 26.2 47 -12.9 8.8
05:50 1021 30.15 850 25.1 -3.1 26.4 48 -12.7 9.2
05:55 1020 30.12 850 25.1 -3.2 26.2 49 -12.5 9.5
06:00 1020 30.12 849 25.07 -3.5 25.8 50 -12.4 9.6
06:05 1020 30.12 850 25.1 -3.7 25.4 51 -12.5 9.6
06:10 1021 30.15 850 25.1 -3.6 25.5 52 -12.1 10.2
06:15 1021 30.15 850 25.1 -3.9 24.9 54 -11.9 10.6
06:20 1021 30.15 850 25.1 -4.2 24.4 54 -12.1 10.2
06:25 1020 30.12 850 25.1 -4.4 24 54 -12.4 9.7
06:30 1020 30.12 849 25.07 -4.4 24.1 54 -12.3 9.9
06:35 1020 30.12 849 25.07 -4 24.8 51 -12.7 9.1
06:40 1020 30.12 850 25.1 -3.6 25.5 51 -12.4 9.6
06:45 1020 30.12 850 25.1 -3.6 25.5 52 -12.1 10.2
06:50 1020 30.12 850 25.1 -3.9 25 53 -12.1 10.1
06:55 1020 30.12 850 25.1 -4.3 24.3 55 -12 10.4
07:00 1020 30.12 850 25.1 -4.6 23.7 55 -12.3 9.9
07:05 1020 30.12 850 25.1 -4.2 24.4 54 -12.3 9.9
07:10 1020 30.12 850 25.1 -3.8 25.1 51 -12.5 9.5
07:15 1020 30.12 850 25.1 -3.6 25.6 51 -12.2 10
07:20 1020 30.12 850 25.1 -3.6 25.4 50 -12.6 9.2
07:25 1020 30.12 850 25.1 -3.5 25.7 50 -12.5 9.5
07:30 1020 30.12 850 25.1 -3.4 25.8 50 -12.3 9.8
07:35 1020 30.12 850 25.1 -3.6 25.5 51 -12.4 9.7
07:40 1020 30.12 850 25.1 -4 24.9 55 -11.7 11
07:45 1020 30.12 850 25.1 -4.4 24.1 55 -12.2 10
07:50 1020 30.12 850 25.1 -4.3 24.3 57 -11.6 11.1
07:55 1020 30.12 850 25.1 -4.4 24.1 58 -11.5 11.4
08:00 1020 30.12 849 25.07 -4.3 24.2 58 -11.4 11.5
08:05 1020 30.12 849 25.07 -4.2 24.5 61 -10.6 12.8
08:10 1020 30.12 849 25.07 -4.3 24.2 58 -11.4 11.5
08:15 1020 30.12 849 25.07 -4.3 24.3 58 -11.4 11.5
08:20 1020 30.12 849 25.07 -4.2 24.4 54 -12.2 10
08:25 1020 30.12 849 25.07 -3.9 24.9 55 -11.7 10.9
08:30 1020 30.12 849 25.07 -4 24.8 55 -11.7 11
08:35 1020 30.12 849 25.07 -4 24.7 55 -11.9 10.7
08:40 1020 30.12 849 25.07 -4.1 24.7 56 -11.7 11
08:45 1020 30.12 849 25.07 -4.1 24.6 55 -11.9 10.6
08:50 1020 30.12 849 25.07 -3.9 24.9 56 -11.5 11.4
08:55 1020 30.12 849 25.07 -4 24.8 57 -11.2 11.8
09:00 1020 30.12 849 25.07 -3.9 24.9 57 -11.3 11.7
09:05 1020 30.12 849 25.07 -3.9 25 59 -10.8 12.5
09:10 1020 30.12 849 25.07 -3.8 25.1 59 -10.6 12.9
09:15 1020 30.12 849 25.07 -3.7 25.3 59 -10.5 13
09:20 1020 30.12 849 25.07 -3.3 26.1 57 -10.7 12.8
09:25 1020 30.12 849 25.07 -2.7 27.2 55 -10.6 13
09:30 1020 30.12 849 25.07 -2.1 28.3 52 -10.8 12.6
09:35 1020 30.12 849 25.07 -1.9 28.5 51 -10.7 12.7
09:40 1020 30.12 849 25.07 -1.6 29.1 51 -10.4 13.2
09:45 1020 30.12 849 25.07 -1.2 29.8 49 -10.5 13.1
09:50 1020 30.12 849 25.07 -1 30.2 47 -11 12.2
09:55 1020 30.12 849 25.07 -0.9 30.4 46 -11 12.1
10:00 1020 30.12 849 25.07 -0.8 30.5 46 -11.2 11.9
10:05 1020 30.12 849 25.07 -0.5 31.1 45 -11.1 12
10:10 1020 30.12 849 25.07 -0.3 31.5 42 -11.6 11.2
10:15 1020 30.12 849 25.07 0.1 32.2 41 -11.6 11
10:20 1020 30.12 849 25.07 0.3 32.5 42 -11.3 11.6
10:25 1020 30.12 849 25.07 0.6 33.1 40 -11.5 11.3
10:30 1020 30.12 849 25.07 1.1 34.1 38 -11.8 10.8
10:35 1020 30.12 849 25.07 1.5 34.8 36 -11.9 10.6
10:40 1019 30.09 849 25.07 2 35.6 33 -12.6 9.4
10:45 1019 30.09 848 25.04 2.2 35.9 32 -12.9 8.8
10:50 1019 30.09 848 25.04 2.6 36.6 33 -12.2 10.1
10:55 1019 30.09 848 25.04 2.9 37.2 33 -11.9 10.5
11:00 1019 30.09 848 25.04 2.6 36.6 33 -12 10.4
11:05 1019 30.09 848 25.04 2.6 36.7 32 -12.5 9.5
11:10 1019 30.09 848 25.04 3 37.3 32 -12.1 10.1
11:15 1019 30.09 848 25.04 3.3 37.9 31 -12.3 9.9
11:20 1019 30.09 848 25.04 3.6 38.5 30 -12.5 9.4
11:25 1019 30.09 848 25.04 4.2 39.5 28 -12.8 9
11:30 1019 30.09 848 25.04 4.4 39.9 28 -12.6 9.4
11:35 1018 30.06 848 25.04 4.1 39.4 29 -12.4 9.6
11:40 1018 30.06 848 25.04 4.4 39.9 29 -12.3 9.8
11:45 1018 30.06 848 25.04 3.5 38.3 30 -12.5 9.6
11:50 1018 30.06 848 25.04 3.4 38.2 30 -12.7 9.1
11:55 1018 30.06 847 25.01 4 39.1 29 -12.4 9.6
12:00 1018 30.06 847 25.01 4.4 39.9 29 -12.3 9.9
12:05 1018 30.06 847 25.01 4.5 40.2 29 -12.2 10
12:10 1018 30.06 847 25.01 4.7 40.4 29 -11.9 10.5
12:15 1018 30.06 847 25.01 4.8 40.7 29 -11.8 10.7
12:20 1018 30.06 847 25.01 5 41 27 -12.5 9.5
12:25 1018 30.06 847 25.01 4.9 40.9 28 -12.3 9.9
12:30 1018 30.06 847 25.01 4.9 40.9 27 -12.6 9.4
12:35 1018 30.06 847 25.01 5 41 27 -12.6 9.2
12:40 1018 30.06 847 25.01 5.2 41.3 26 -12.7 9.1
12:45 1018 30.06 847 25.01 5.4 41.7 26 -12.5 9.5
12:50 1018 30.06 847 25.01 5.3 41.5 26 -12.6 9.3
12:55 1018 30.06 847 25.01 5.4 41.7 26 -12.7 9.2
13:00 1018 30.06 847 25.01 5.3 41.6 26 -12.9 8.8
13:05 1018 30.06 847 25.01 5.4 41.7 25 -13 8.6
13:10 1018 30.06 847 25.01 5.5 41.9 25 -13 8.5
13:15 1017 30.03 847 25.01 5.6 42.1 26 -12.4 9.8
13:20 1017 30.03 847 25.01 5.3 41.5 27 -12.2 10.1
13:25 1017 30.03 847 25.01 4.9 40.9 29 -11.5 11.2
13:30 1017 30.03 846 24.98 4.7 40.4 31 -11.2 11.8
13:35 1017 30.03 846 24.98 4.6 40.4 30 -11.7 11
13:40 1017 30.03 847 25.01 4.8 40.7 30 -11.5 11.2
13:45 1017 30.03 846 24.98 4.6 40.3 31 -11.2 11.9
13:50 1017 30.03 846 24.98 4.8 40.6 30 -11.2 11.8
13:55 1017 30.03 846 24.98 5 40.9 30 -11.4 11.5
14:00 1017 30.03 846 24.98 5 41 31 -10.9 12.3
14:05 1017 30.03 846 24.98 5.1 41.2 31 -10.7 12.7
14:10 1017 30.03 846 24.98 5.2 41.4 31 -10.6 13
14:15 1017 30.03 846 24.98 5.2 41.4 30 -11.1 12
14:20 1017 30.03 846 24.98 5.2 41.3 30 -10.9 12.4
14:25 1017 30.03 846 24.98 5.3 41.5 30 -11.1 11.9
14:30 1016 30 846 24.98 5.1 41.2 30 -11.2 11.9
14:35 1016 30 846 24.98 4.9 40.8 30 -11.2 11.8
14:40 1016 30 845 24.95 5 41 30 -11.4 11.6
14:45 1016 30 845 24.95 5.1 41.1 29 -11.5 11.2
14:50 1016 30 845 24.95 5.2 41.3 29 -11.4 11.4
14:55 1016 30 845 24.95 5.3 41.6 29 -11.5 11.3
15:00 1016 30 845 24.95 5.4 41.6 29 -11.4 11.5
15:05 1016 30 845 24.95 5.7 42.3 28 -11.4 11.4
15:10 1015 29.97 845 24.95 6 42.8 28 -11.4 11.5
15:15 1015 29.97 844 24.92 6 42.8 28 -11.2 11.8
15:20 1015 29.97 844 24.92 5.8 42.4 28 -11.3 11.7
15:25 1015 29.97 844 24.92 5.5 42 29 -11.2 11.9
15:30 1015 29.97 844 24.92 5.7 42.3 29 -11.1 12.1
15:35 1015 29.97 844 24.92 6.1 43 29 -10.7 12.7
15:40 1015 29.97 844 24.92 6.3 43.3 29 -10.6 13
15:45 1015 29.97 844 24.92 6.4 43.5 29 -10.6 12.9
15:50 1015 29.97 844 24.92 6.3 43.4 29 -10.4 13.3
15:55 1015 29.97 844 24.92 6.2 43.1 30 -10.1 13.9
16:00 1015 29.97 844 24.92 6.5 43.7 30 -9.7 14.5
16:05 1015 29.97 844 24.92 6.7 44 29 -10 14
16:10 1014 29.94 844 24.92 7.2 45 29 -9.6 14.7
16:15 1014 29.94 844 24.92 7.2 45 29 -9.5 14.9
16:20 1014 29.94 844 24.92 7.1 44.8 30 -9.5 14.9
16:25 1015 29.97 844 24.92 6.9 44.4 30 -9.5 15
16:30 1015 29.97 844 24.92 6.7 44.1 31 -9.3 15.2
16:35 1015 29.97 844 24.92 6.9 44.3 32 -8.8 16.2
16:40 1015 29.97 844 24.92 7 44.5 32 -8.8 16.1
16:45 1015 29.97 844 24.92 7.3 45.2 30 -9.1 15.7
16:50 1015 29.97 844 24.92 7.5 45.5 31 -8.8 16.2
16:55 1015 29.97 844 24.92 7.6 45.6 31 -8.5 16.7
17:00 1015 29.97 844 24.92 7.7 45.9 31 -8.5 16.7
17:05 1015 29.97 844 24.92 7.8 46 31 -8.5 16.7
17:10 1014 29.94 844 24.92 7.8 46 30 -8.6 16.6
17:15 1014 29.94 844 24.92 7.8 46 30 -8.7 16.4
17:20 1014 29.94 844 24.92 7.7 45.8 31 -8.6 16.5
17:25 1014 29.94 844 24.92 7.8 46 30 -8.6 16.4
17:30 1014 29.94 844 24.92 7.6 45.8 30 -8.8 16.1
17:35 1014 29.94 844 24.92 7.6 45.6 31 -8.6 16.5
17:40 1014 29.94 844 24.92 7.6 45.6 30 -8.8 16.2
17:45 1014 29.94 844 24.92 7.5 45.6 31 -8.6 16.6
17:50 1014 29.94 844 24.92 7.6 45.6 30 -8.9 16
17:55 1014 29.94 844 24.92 7.3 45.2 35 -7.2 19.1
18:00 1014 29.94 843 24.89 6.8 44.3 36 -7.1 19.3
18:05 1014 29.94 843 24.89 6.5 43.6 37 -7.3 18.8
18:10 1014 29.94 843 24.89 6.1 43 36 -7.7 18.1
18:15 1014 29.94 843 24.89 6 42.8 36 -8 17.6
18:20 1014 29.94 843 24.89 5.9 42.6 36 -7.9 17.8
18:25 1014 29.94 843 24.89 5.8 42.5 37 -7.8 18
18:30 1014 29.94 843 24.89 5.8 42.4 38 -7.6 18.3
18:35 1014 29.94 843 24.89 5.7 42.3 38 -7.5 18.6
18:40 1014 29.94 843 24.89 5.6 42.1 38 -7.5 18.6
18:45 1013 29.91 843 24.89 5.5 41.9 38 -7.7 18.1
18:50 1013 29.91 843 24.89 5.5 41.9 37 -7.9 17.7
18:55 1013 29.91 843 24.89 5.5 42 37 -7.9 17.9
19:00 1013 29.91 842 24.86 5.5 41.8 39 -7.4 18.7
19:05 1013 29.91 842 24.86 5.3 41.5 39 -7.6 18.3
19:10 1013 29.91 842 24.86 5.2 41.3 39 -7.8 18
19:15 1013 29.91 842 24.86 5.2 41.4 40 -7.4 18.6
19:20 1013 29.91 842 24.86 5.3 41.5 41 -6.9 19.6
19:25 1013 29.91 842 24.86 5.3 41.5 43 -6.3 20.7
19:30 1013 29.91 842 24.86 5.3 41.5 44 -6 21.1
19:35 1013 29.91 842 24.86 5.2 41.4 46 -5.5 22.1
19:40 1013 29.91 842 24.86 5.2 41.4 46 -5.4 22.2
19:45 1013 29.91 842 24.86 5.2 41.4 47 -5.3 22.5
19:50 1013 29.91 842 24.86 5.3 41.5 47 -5.2 22.6
19:55 1013 29.91 842 24.86 5.3 41.6 47 -5.2 22.7
20:00 1013 29.91 842 24.86 5.3 41.6 47 -5.2 22.7
20:05 1013 29.91 842 24.86 5.3 41.5 47 -5.2 22.6
20:10 1013 29.91 842 24.86 5.2 41.4 47 -5.1 22.9
20:15 1013 29.91 843 24.89 5.4 41.6 47 -5.1 22.8
20:20 1013 29.91 842 24.86 5.5 41.8 46 -5.1 22.8
20:25 1013 29.91 842 24.86 5.4 41.8 47 -5 22.9
20:30 1013 29.91 843 24.89 5.4 41.6 47 -5 23.1
20:35 1013 29.91 843 24.89 5.3 41.5 48 -4.9 23.2
20:40 1013 29.91 842 24.86 5.1 41.1 49 -4.8 23.3
20:45 1013 29.91 842 24.86 5 41.1 47 -5.4 22.2
20:50 1013 29.91 842 24.86 5.3 41.5 47 -5.2 22.7
20:55 1013 29.91 842 24.86 5.5 41.9 47 -5 23
21:00 1013 29.91 842 24.86 5.5 41.8 47 -4.9 23.2
21:05 1013 29.91 842 24.86 5.3 41.5 47 -5.2 22.6
21:10 1013 29.91 842 24.86 5.5 41.9 44 -5.9 21.4
21:15 1013 29.91 842 24.86 6.2 43.2 40 -6.2 20.8
21:20 1013 29.91 842 24.86 6.8 44.2 38 -6.5 20.3
21:25 1013 29.91 842 24.86 7.1 44.8 37 -6.5 20.3
21:30 1013 29.91 842 24.86 7.3 45.1 37 -6.4 20.4
21:35 1013 29.91 842 24.86 7.4 45.3 37 -6.2 20.8
21:40 1013 29.91 842 24.86 7.5 45.5 37 -6.3 20.7
21:45 1013 29.91 842 24.86 7.8 46.1 36 -6.4 20.5
21:50 1013 29.91 842 24.86 8.4 47.1 35 -6.3 20.6
21:55 1013 29.91 842 24.86 8.4 47.1 35 -6.3 20.7
22:00 1013 29.91 842 24.86 8 46.3 35 -6.7 19.9
22:05 1013 29.91 842 24.86 7.7 45.9 35 -6.7 20
22:10 1012 29.88 841 24.83 7.5 45.5 36 -6.7 19.9
22:15 1012 29.88 841 24.83 7.5 45.5 36 -6.6 20.1
22:20 1012 29.88 841 24.83 7.4 45.3 37 -6.4 20.4
22:25 1012 29.88 841 24.83 7.4 45.2 36 -6.8 19.8
22:30 1012 29.88 841 24.83 7.7 45.8 36 -6.4 20.5
22:35 1012 29.88 841 24.83 7.6 45.7 36 -6.4 20.5
22:40 1012 29.88 841 24.83 7.5 45.6 37 -6.2 20.8
22:45 1012 29.88 841 24.83 7.5 45.4 39 -5.7 21.7
22:50 1012 29.88 841 24.83 7.3 45.2 38 -5.9 21.3
22:55 1012 29.88 841 24.83 7.6 45.6 37 -6.2 20.8
23:00 1012 29.88 841 24.83 7.8 46 36 -6.2 20.8
23:05 1012 29.88 841 24.83 7.8 46 36 -6.2 20.8
23:10 1012 29.88 841 24.83 7.7 45.9 38 -5.8 21.6
23:15 1012 29.88 841 24.83 7.4 45.3 39 -5.5 22.1
23:20 1012 29.88 841 24.83 7 44.7 40 -5.5 22.1
23:25 1012 29.88 841 24.83 6.9 44.4 40 -6 21.3
23:30 1012 29.88 841 24.83 6.8 44.3 40 -5.7 21.7
23:35 1011 29.85 841 24.83 6.7 44.1 41 -5.6 21.9
23:40 1011 29.85 841 24.83 6.9 44.5 38 -6.5 20.2
23:45 1011 29.85 841 24.83 7.6 45.6 37 -6.4 20.6
23:50 1011 29.85 841 24.83 7.7 45.8 36 -6.4 20.4
23:55 1011 29.85 840 24.81 7.9 46.2 36 -6.2 20.9
24:00 1011 29.85 840 24.81 7.8 46 37 -6 21.2